Time;durP1;ratioP1;P1;durP2;ratioP2;P2;SDS_P1;SDS_P2;PMS_P1;PMS_P2;Temp;Humidity;BMP_temperature;BMP_pressure;BME280_temperature;BME280_humidity;BME280_pressure;Samples;Min_cycle;Max_cycle;Signal;HPM_P1;HPM_P2
2023/04/14 00:00:37;;;;;;;14.07;3.83;;;16.30;76.80;;;;;;5052522;28;20021;-73
2023/04/14 00:03:03;;;;;;;9.43;4.53;;;16.20;77.60;;;;;;5051895;28;20137;-74
2023/04/14 00:05:30;;;;;;;14.82;4.68;;;16.10;77.90;;;;;;5051913;28;20032;-71
2023/04/14 00:07:56;;;;;;;13.18;4.93;;;16.10;78.00;;;;;;5051980;28;20029;-72
2023/04/14 00:10:23;;;;;;;9.23;4.22;;;16.10;77.40;;;;;;5052137;28;20032;-74
2023/04/14 00:12:49;;;;;;;13.07;3.83;;;16.10;77.50;;;;;;5050462;28;20021;-72
2023/04/14 00:15:15;;;;;;;12.27;4.18;;;16.10;77.60;;;;;;5051798;28;20106;-73
2023/04/14 00:17:41;;;;;;;7.32;3.28;;;16.00;77.10;;;;;;5051701;28;20079;-73
2023/04/14 00:20:07;;;;;;;11.52;4.65;;;16.10;76.90;;;;;;5052222;28;20289;-73
2023/04/14 00:22:33;;;;;;;9.02;3.50;;;16.10;77.20;;;;;;5052143;28;20028;-74
2023/04/14 00:25:00;;;;;;;9.70;3.80;;;16.00;77.60;;;;;;5051777;28;20032;-74
2023/04/14 00:27:26;;;;;;;11.13;4.30;;;15.90;78.20;;;;;;5038921;28;20104;-74
2023/04/14 00:29:52;;;;;;;12.40;5.63;;;15.90;78.10;;;;;;5051550;28;20389;-72
2023/04/14 00:32:18;;;;;;;17.10;8.40;;;15.80;78.10;;;;;;5050364;28;20032;-71
2023/04/14 00:34:44;;;;;;;15.90;6.88;;;15.80;78.30;;;;;;5051888;28;20029;-72
2023/04/14 00:37:10;;;;;;;18.08;7.88;;;15.80;78.70;;;;;;5049711;28;20031;-75
2023/04/14 00:39:36;;;;;;;11.70;5.07;;;15.70;79.10;;;;;;5050760;28;20041;-73
2023/04/14 00:42:02;;;;;;;16.88;7.10;;;15.70;79.30;;;;;;5051583;28;20075;-73
2023/04/14 00:44:29;;;;;;;15.35;5.53;;;15.70;78.80;;;;;;5050520;28;20025;-73
2023/04/14 00:46:56;;;;;;;16.67;5.30;;;15.60;79.20;;;;;;5051524;28;20025;-74
2023/04/14 00:49:23;;;;;;;14.57;5.85;;;15.60;79.50;;;;;;5051801;28;20029;-75
2023/04/14 00:51:49;;;;;;;9.82;4.68;;;15.60;79.70;;;;;;5050220;28;20040;-73
2023/04/14 00:54:17;;;;;;;12.20;5.32;;;15.60;79.20;;;;;;5051714;28;20068;-73
2023/04/14 00:56:45;;;;;;;18.38;5.90;;;15.60;79.10;;;;;;5051874;28;20059;-73
2023/04/14 00:59:12;;;;;;;18.45;5.93;;;15.60;79.50;;;;;;5055310;28;20033;-74
2023/04/14 01:01:39;;;;;;;19.92;7.75;;;15.60;79.60;;;;;;5055592;28;20029;-73
2023/04/14 01:04:05;;;;;;;12.18;5.45;;;15.60;79.70;;;;;;5055657;28;20112;-71
2023/04/14 01:06:32;;;;;;;14.40;6.07;;;15.50;79.90;;;;;;5053646;28;20037;-74
2023/04/14 01:08:58;;;;;;;14.32;6.22;;;15.50;80.40;;;;;;5055347;28;20041;-74
2023/04/14 01:11:50;;;;;;;17.67;7.30;;;15.50;80.10;;;;;;5054092;28;20059;-74
2023/04/14 01:14:41;;;;;;;21.17;8.25;;;15.50;80.40;;;;;;5054137;28;20062;-75
2023/04/14 01:17:23;;;;;;;11.32;5.13;;;15.40;80.30;;;;;;5055097;28;20025;-75
2023/04/14 01:19:57;;;;;;;12.60;4.27;;;15.50;80.10;;;;;;5033591;28;20060;-75
2023/04/14 01:22:28;;;;;;;10.07;4.03;;;15.50;79.50;;;;;;5055213;28;20825;-75
2023/04/14 01:25:21;;;;;;;11.13;4.03;;;15.60;79.10;;;;;;5054988;28;20033;-73
2023/04/14 01:28:18;;;;;;;12.25;4.50;;;15.70;78.00;;;;;;5021781;28;20036;-72
2023/04/14 01:31:13;;;;;;;13.52;5.60;;;15.80;78.10;;;;;;5052662;28;20127;-73
2023/04/14 01:33:41;;;;;;;10.18;4.57;;;15.80;78.20;;;;;;5054952;28;20029;-74
2023/04/14 01:36:15;;;;;;;10.68;3.95;;;15.90;78.50;;;;;;5055413;28;20021;-74
2023/04/14 01:38:43;;;;;;;9.63;4.00;;;15.90;78.40;;;;;;5053303;28;20031;-73
2023/04/14 01:41:13;;;;;;;11.68;4.40;;;15.90;78.00;;;;;;5053734;28;20059;-73
2023/04/14 01:43:44;;;;;;;11.90;3.90;;;16.00;77.70;;;;;;5053303;28;20021;-73
2023/04/14 01:46:14;;;;;;;8.65;4.25;;;16.00;77.70;;;;;;5053797;28;20060;-72
2023/04/14 01:48:40;;;;;;;11.77;4.20;;;16.10;77.30;;;;;;5053151;28;20041;-73
2023/04/14 01:51:08;;;;;;;8.68;4.22;;;16.10;77.10;;;;;;5053419;28;20059;-73
2023/04/14 01:53:39;;;;;;;17.40;4.47;;;16.20;76.90;;;;;;5053581;28;20028;-73
2023/04/14 01:56:08;;;;;;;15.70;4.72;;;16.20;76.60;;;;;;5052720;28;20032;-72
2023/04/14 01:58:36;;;;;;;14.30;5.60;;;16.30;77.60;;;;;;5053303;28;20119;-72
2023/04/14 02:01:03;;;;;;;11.77;5.25;;;16.20;77.00;;;;;;5052568;28;20431;-73
2023/04/14 02:03:31;;;;;;;17.13;6.50;;;16.20;77.20;;;;;;5053236;28;20023;-72
2023/04/14 02:05:57;;;;;;;18.58;5.85;;;16.20;76.80;;;;;;5053518;28;20071;-72
2023/04/14 02:08:25;;;;;;;11.73;4.13;;;16.20;77.50;;;;;;5053199;28;20037;-73
2023/04/14 02:10:53;;;;;;;10.40;3.83;;;16.10;77.70;;;;;;5052602;28;20128;-72
2023/04/14 02:13:21;;;;;;;6.82;3.33;;;16.10;77.60;;;;;;5054244;28;20062;-72
2023/04/14 02:15:50;;;;;;;14.80;4.85;;;16.10;77.10;;;;;;5052676;28;20086;-72
2023/04/14 02:18:22;;;;;;;17.35;5.25;;;16.10;77.90;;;;;;5052734;28;20017;-72
2023/04/14 02:20:51;;;;;;;18.80;6.57;;;16.10;77.90;;;;;;5052781;28;20058;-72
2023/04/14 02:23:17;;;;;;;10.48;4.45;;;16.10;77.80;;;;;;5053737;28;20024;-72
2023/04/14 02:25:55;;;;;;;11.93;5.28;;;16.00;77.80;;;;;;5052421;28;20090;-72
2023/04/14 02:28:30;;;;;;;16.63;6.15;;;16.10;77.00;;;;;;5052602;28;20076;-72
2023/04/14 02:30:58;;;;;;;17.05;7.28;;;16.10;77.20;;;;;;5053888;28;20488;-72
2023/04/14 02:33:30;;;;;;;15.70;7.38;;;16.10;77.60;;;;;;5053924;28;20081;-73
2023/04/14 02:36:14;;;;;;;12.95;4.70;;;16.10;77.60;;;;;;5052338;28;20033;-72
2023/04/14 02:38:56;;;;;;;18.67;8.50;;;16.10;77.60;;;;;;5053746;28;20052;-73
2023/04/14 02:41:27;;;;;;;15.18;6.22;;;16.10;78.30;;;;;;5047104;28;20380;-73
2023/04/14 02:44:24;;;;;;;22.58;6.82;;;16.00;77.50;;;;;;5028029;28;20036;-73
2023/04/14 02:47:08;;;;;;;17.20;6.97;;;16.10;77.50;;;;;;5052018;28;20108;-73
2023/04/14 02:49:46;;;;;;;16.38;6.78;;;16.00;78.00;;;;;;5051960;28;20508;-73
2023/04/14 02:52:16;;;;;;;21.88;7.47;;;16.00;78.40;;;;;;5042554;28;20025;-73
2023/04/14 02:54:45;;;;;;;26.65;12.40;;;15.90;78.00;;;;;;5031871;28;20511;-72
2023/04/14 02:57:13;;;;;;;43.38;20.15;;;15.90;78.60;;;;;;5032265;28;20176;-73
2023/04/14 02:59:44;;;;;;;11.77;5.28;;;15.90;78.00;;;;;;5032187;28;20037;-73
2023/04/14 03:02:12;;;;;;;19.23;6.10;;;15.90;78.40;;;;;;5032233;28;20025;-73
2023/04/14 03:04:42;;;;;;;19.83;5.88;;;15.90;79.80;;;;;;5082382;28;20118;-73
2023/04/14 03:07:22;;;;;;;14.25;5.78;;;15.80;80.20;;;;;;5036473;28;20067;-72
2023/04/14 03:09:50;;;;;;;15.05;6.63;;;15.80;80.30;;;;;;5051526;28;20127;-73
2023/04/14 03:12:19;;;;;;;20.17;6.22;;;15.70;79.60;;;;;;5051888;28;20029;-73
2023/04/14 03:14:47;;;;;;;19.08;6.30;;;15.70;79.80;;;;;;5052794;28;20388;-72
2023/04/14 03:17:16;;;;;;;8.02;3.58;;;15.70;79.50;;;;;;5051914;28;20029;-73
2023/04/14 03:19:46;;;;;;;10.63;5.25;;;15.70;79.30;;;;;;5052754;28;20097;-72
2023/04/14 03:22:14;;;;;;;13.55;5.03;;;15.70;80.30;;;;;;5051789;28;20029;-73
2023/04/14 03:24:43;;;;;;;15.35;6.40;;;15.70;80.40;;;;;;5051464;28;20025;-72
2023/04/14 03:27:17;;;;;;;14.90;4.90;;;15.70;80.30;;;;;;5051301;28;20120;-73
2023/04/14 03:29:50;;;;;;;16.35;4.63;;;15.60;80.90;;;;;;5052834;28;20032;-71
2023/04/14 03:32:18;;;;;;;19.20;7.60;;;15.60;81.40;;;;;;5051015;28;20035;-73
2023/04/14 03:34:50;;;;;;;12.15;4.85;;;15.50;81.70;;;;;;5052863;28;20025;-73
2023/04/14 03:37:19;;;;;;;13.50;4.50;;;15.50;81.00;;;;;;5037734;28;20067;-72
2023/04/14 03:39:49;;;;;;;14.75;4.30;;;15.50;81.20;;;;;;5051325;28;20480;-72
2023/04/14 03:42:21;;;;;;;14.27;4.53;;;15.50;81.70;;;;;;5051419;28;20036;-73
2023/04/14 03:44:52;;;;;;;12.60;5.63;;;15.40;82.30;;;;;;5050962;28;20029;-74
2023/04/14 03:47:22;;;;;;;15.75;5.95;;;15.30;82.70;;;;;;5037588;28;20512;-73
2023/04/14 03:49:51;;;;;;;20.35;7.30;;;15.30;82.30;;;;;;5051149;28;20041;-73
2023/04/14 03:52:19;;;;;;;23.10;8.63;;;15.30;82.50;;;;;;5037526;28;20033;-72
2023/04/14 03:54:46;;;;;;;16.50;7.30;;;15.30;82.80;;;;;;5051215;28;20029;-72
2023/04/14 03:57:16;;;;;;;21.40;6.43;;;15.30;83.60;;;;;;5034226;28;20048;-73
2023/04/14 03:59:45;;;;;;;14.30;6.65;;;15.20;84.80;;;;;;5051206;28;20028;-72
2023/04/14 04:02:13;;;;;;;18.15;6.63;;;15.20;85.80;;;;;;5050379;28;20380;-73
2023/04/14 04:04:40;;;;;;;16.00;7.25;;;15.10;87.40;;;;;;5052365;28;20111;-70
2023/04/14 04:07:09;;;;;;;13.77;4.75;;;15.10;87.30;;;;;;5050338;28;20132;-73
2023/04/14 04:09:37;;;;;;;11.45;5.00;;;15.20;87.20;;;;;;5050591;28;20091;-73
2023/04/14 04:12:04;;;;;;;13.68;5.65;;;15.20;86.70;;;;;;5051023;28;20083;-72
2023/04/14 04:14:31;;;;;;;18.95;6.53;;;15.10;89.00;;;;;;5050309;28;20044;-73
2023/04/14 04:17:01;;;;;;;12.45;5.00;;;14.80;89.30;;;;;;5052247;28;20420;-73
2023/04/14 04:19:28;;;;;;;29.15;6.20;;;14.60;90.30;;;;;;5050427;28;20492;-73
2023/04/14 04:21:56;;;;;;;8.93;4.18;;;14.10;96.40;;;;;;5050486;28;20033;-73
2023/04/14 04:24:25;;;;;;;9.40;4.40;;;13.70;99.90;;;;;;5050293;28;20029;-73
2023/04/14 04:26:53;;;;;;;9.23;3.70;;;13.40;99.90;;;;;;5050580;28;20028;-70
2023/04/14 04:29:24;;;;;;;5.68;3.83;;;13.10;99.90;;;;;;5050112;28;20047;-72
2023/04/14 04:31:51;;;;;;;11.05;4.68;;;12.80;99.90;;;;;;5050032;28;20082;-73
2023/04/14 04:34:17;;;;;;;6.97;4.78;;;12.60;99.90;;;;;;5050283;28;20392;-71
2023/04/14 04:36:45;;;;;;;10.95;5.15;;;12.50;99.90;;;;;;5049961;28;20488;-71
2023/04/14 04:39:11;;;;;;;9.68;5.68;;;12.40;99.90;;;;;;5033274;28;20025;-72
2023/04/14 04:41:39;;;;;;;8.15;5.13;;;12.30;99.90;;;;;;5031944;28;20021;-73
2023/04/14 04:44:05;;;;;;;9.32;5.35;;;12.20;99.90;;;;;;5080657;28;20499;-73
2023/04/14 04:46:52;;;;;;;8.95;4.80;;;12.10;99.90;;;;;;5047597;28;20029;-71
2023/04/14 04:49:21;;;;;;;10.90;5.30;;;11.90;99.90;;;;;;5010435;28;20030;-72
2023/04/14 04:51:48;;;;;;;7.35;4.05;;;11.90;99.90;;;;;;5023437;28;20018;-72
2023/04/14 04:54:16;;;;;;;7.28;4.50;;;11.90;99.90;;;;;;5049894;28;20029;-72
2023/04/14 04:56:42;;;;;;;8.82;4.07;;;11.80;99.90;;;;;;5050622;28;20029;-73
2023/04/14 04:59:08;;;;;;;7.75;3.25;;;11.70;99.90;;;;;;5051043;28;20024;-73
2023/04/14 05:01:34;;;;;;;10.13;3.65;;;11.70;99.90;;;;;;5051451;28;20032;-71
2023/04/14 05:04:00;;;;;;;10.23;3.65;;;11.60;99.90;;;;;;5051114;28;20037;-71
2023/04/14 05:06:32;;;;;;;6.35;3.38;;;11.60;99.90;;;;;;5050933;28;20041;-74
2023/04/14 05:08:58;;;;;;;8.30;3.22;;;11.50;99.90;;;;;;5025866;28;20041;-71
2023/04/14 05:11:25;;;;;;;7.25;3.00;;;11.60;99.90;;;;;;5050999;28;20594;-73
2023/04/14 05:13:55;;;;;;;5.88;2.72;;;11.50;99.90;;;;;;5051549;28;20039;-73
2023/04/14 05:16:20;;;;;;;4.80;2.50;;;11.50;99.90;;;;;;5051122;28;20113;-73
2023/04/14 05:18:46;;;;;;;3.47;1.90;;;11.40;99.90;;;;;;5051704;28;20112;-71
2023/04/14 05:21:13;;;;;;;5.35;2.35;;;11.40;99.90;;;;;;5051107;28;20108;-74
2023/04/14 05:23:42;;;;;;;3.28;2.13;;;11.40;99.90;;;;;;5051072;28;20104;-73
2023/04/14 05:26:09;;;;;;;4.20;2.17;;;11.40;99.90;;;;;;5033193;28;20365;-73
2023/04/14 05:28:35;;;;;;;4.18;2.25;;;11.40;99.90;;;;;;5044511;28;20140;-75
2023/04/14 05:31:01;;;;;;;5.57;2.42;;;11.40;99.90;;;;;;5051113;28;20028;-72
2023/04/14 05:33:27;;;;;;;4.95;2.38;;;11.40;99.90;;;;;;5051184;28;20029;-73
2023/04/14 05:35:53;;;;;;;6.45;2.80;;;11.40;99.90;;;;;;5025340;28;20024;-74
2023/04/14 05:38:24;;;;;;;4.68;2.33;;;11.50;99.90;;;;;;5048222;28;20029;-74
2023/04/14 05:40:50;;;;;;;3.80;2.10;;;11.40;99.90;;;;;;5040955;28;20025;-73
2023/04/14 05:43:16;;;;;;;5.05;2.60;;;11.30;99.90;;;;;;5050699;28;20465;-74
2023/04/14 05:45:47;;;;;;;4.22;2.08;;;11.30;99.90;;;;;;5041680;28;20120;-74
2023/04/14 05:48:16;;;;;;;4.57;2.00;;;11.30;99.90;;;;;;5034749;28;20021;-74
2023/04/14 05:50:45;;;;;;;4.15;1.75;;;11.30;99.90;;;;;;5034674;28;20108;-74
2023/04/14 05:53:11;;;;;;;2.97;1.90;;;11.30;99.90;;;;;;5034779;28;20083;-74
2023/04/14 05:55:57;;;;;;;3.35;2.08;;;11.30;99.90;;;;;;5034591;28;20440;-73
2023/04/14 05:58:31;;;;;;;4.18;1.98;;;11.30;99.90;;;;;;5021685;28;20018;-74
2023/04/14 06:01:05;;;;;;;6.25;2.13;;;11.30;99.90;;;;;;5034353;28;20527;-74
2023/04/14 06:03:42;;;;;;;2.92;2.10;;;11.20;99.90;;;;;;5034359;28;20025;-73
2023/04/14 06:06:32;;;;;;;5.55;2.80;;;11.20;99.90;;;;;;5033996;28;20039;-74
2023/04/14 06:09:15;;;;;;;3.28;1.98;;;11.20;99.90;;;;;;5034338;28;20048;-74
2023/04/14 06:11:41;;;;;;;6.55;2.60;;;11.20;99.90;;;;;;5034442;28;20481;-74
2023/04/14 06:14:07;;;;;;;4.97;2.53;;;11.30;99.90;;;;;;5034170;28;20025;-74
2023/04/14 06:17:02;;;;;;;4.45;2.45;;;11.30;99.90;;;;;;5034171;28;20022;-74
2023/04/14 06:20:14;;;;;;;6.07;3.10;;;11.40;99.90;;;;;;5005588;28;20042;-74
2023/04/14 06:23:00;;;;;;;5.95;2.65;;;11.40;99.90;;;;;;5010635;28;20084;-75
2023/04/14 06:28:34;;;;;;;8.00;3.93;;;11.40;99.90;;;;;;4999044;28;20409;-73
2023/04/14 06:31:03;;;;;;;5.65;2.97;;;11.50;99.90;;;;;;5000833;28;20382;-70
2023/04/14 06:33:32;;;;;;;5.10;3.15;;;11.50;99.90;;;;;;5009955;28;20074;-74
2023/04/14 06:36:03;;;;;;;7.75;3.10;;;11.60;99.90;;;;;;4999274;28;20031;-75
2023/04/14 06:38:32;;;;;;;8.50;5.43;;;11.70;99.90;;;;;;4998022;28;20034;-73
2023/04/14 06:41:09;;;;;;;8.80;3.90;;;11.70;99.90;;;;;;5005066;28;20429;-75
2023/04/14 06:43:46;;;;;;;8.13;4.65;;;11.80;99.90;;;;;;5007090;28;20030;-76
2023/04/14 06:46:18;;;;;;;9.30;3.67;;;12.00;99.90;;;;;;5005153;28;20448;-78
2023/04/14 06:48:59;;;;;;;10.50;5.00;;;12.00;99.90;;;;;;5005126;28;20810;-75
2023/04/14 06:51:51;;;;;;;8.23;3.88;;;12.00;99.90;;;;;;5011128;28;20101;-74
2023/04/14 06:54:20;;;;;;;10.10;3.85;;;12.00;99.90;;;;;;4979540;28;20458;-74
2023/04/14 06:56:49;;;;;;;12.50;6.20;;;11.90;99.90;;;;;;5025057;28;20510;-77
2023/04/14 06:59:26;;;;;;;8.80;4.13;;;11.90;99.90;;;;;;5033038;28;20029;-76
2023/04/14 07:02:11;;;;;;;9.55;4.13;;;11.90;99.90;;;;;;5021182;28;20499;-76
2023/04/14 07:04:44;;;;;;;4.28;2.80;;;12.10;99.90;;;;;;5032531;28;20040;-76
2023/04/14 07:07:19;;;;;;;9.38;4.85;;;12.20;99.90;;;;;;5033012;28;20064;-76
2023/04/14 07:09:50;;;;;;;7.72;3.83;;;12.30;99.90;;;;;;5033044;28;20045;-78
2023/04/14 07:12:30;;;;;;;9.95;4.93;;;12.40;99.90;;;;;;5078731;28;20481;-76
2023/04/14 07:14:59;;;;;;;6.50;3.45;;;12.40;99.90;;;;;;5033094;28;20384;-75
2023/04/14 07:17:24;;;;;;;8.55;3.67;;;12.40;99.90;;;;;;5032639;28;20021;-77
2023/04/14 07:19:50;;;;;;;7.93;4.22;;;12.40;99.90;;;;;;5033335;28;20091;-77
2023/04/14 07:23:07;;;;;;;8.70;4.47;;;12.40;99.90;;;;;;5034062;28;20108;-76
2023/04/14 07:25:46;;;;;;;8.90;4.55;;;12.50;99.90;;;;;;5010568;28;20034;-74
2023/04/14 07:28:14;;;;;;;12.55;5.53;;;12.50;99.90;;;;;;4999444;28;20034;-71
2023/04/14 07:30:40;;;;;;;11.63;6.38;;;12.50;99.90;;;;;;4998610;28;20037;-76
2023/04/14 07:33:06;;;;;;;13.75;7.63;;;12.60;99.90;;;;;;5004009;28;20038;-77
2023/04/14 07:39:07;;;;;;;13.32;7.85;;;12.50;99.90;;;;;;4962507;28;20518;-76
2023/04/14 07:41:35;;;;;;;16.80;8.85;;;12.60;99.90;;;;;;4965573;28;20035;-75
2023/04/14 07:44:34;;;;;;;13.63;7.95;;;12.60;99.90;;;;;;4961846;28;20034;-73
2023/04/14 07:51:23;;;;;;;17.25;9.48;;;12.60;99.90;;;;;;4958179;28;20053;-72
2023/04/14 07:54:36;;;;;;;13.68;7.13;;;12.50;99.90;;;;;;4896665;28;20427;-71
2023/04/14 07:57:12;;;;;;;11.93;6.18;;;12.50;99.90;;;;;;4903445;29;20174;-75
2023/04/14 08:03:38;;;;;;;17.77;11.27;;;12.40;99.90;;;;;;5099977;23;20070;-71
2023/04/14 08:06:06;;;;;;;17.90;11.35;;;12.50;99.90;;;;;;4915193;29;20047;-71
2023/04/14 08:09:13;;;;;;;15.13;6.85;;;12.50;99.90;;;;;;4915568;29;20123;-77
2023/04/14 08:11:40;;;;;;;14.93;8.88;;;12.40;99.90;;;;;;4908179;29;20044;-73
2023/04/14 08:14:24;;;;;;;21.85;11.88;;;12.50;99.90;;;;;;4897583;29;20040;-74
2023/04/14 08:16:50;;;;;;;16.00;8.07;;;12.50;99.90;;;;;;4915674;29;20064;-71
2023/04/14 08:19:59;;;;;;;10.15;5.15;;;12.50;99.90;;;;;;4915763;29;20042;-78
2023/04/14 08:22:56;;;;;;;15.85;7.80;;;12.40;99.90;;;;;;4904707;29;20042;-77
2023/04/14 08:25:32;;;;;;;19.92;9.48;;;12.40;99.90;;;;;;4818735;29;20033;-71
2023/04/14 08:27:58;;;;;;;20.73;11.45;;;12.30;99.90;;;;;;4839040;29;20113;-75
2023/04/14 08:30:30;;;;;;;16.08;7.32;;;12.40;99.90;;;;;;4839037;29;20287;-73
2023/04/14 08:33:24;;;;;;;10.25;5.88;;;12.30;99.90;;;;;;4838344;29;20049;-78
2023/04/14 08:35:55;;;;;;;10.10;5.25;;;12.40;99.90;;;;;;4783597;29;20098;-77
2023/04/14 08:42:15;;;;;;;13.05;6.85;;;12.50;99.90;;;;;;4736186;30;20044;-71
2023/04/14 08:45:03;;;;;;;10.68;5.85;;;12.60;99.90;;;;;;4739712;30;20493;-76
2023/04/14 08:47:47;;;;;;;11.73;5.85;;;12.60;99.90;;;;;;4714629;30;20068;-75
2023/04/14 08:50:45;;;;;;;9.88;5.25;;;12.80;99.90;;;;;;4729258;30;20706;-75
2023/04/14 08:53:22;;;;;;;16.80;8.40;;;12.80;99.90;;;;;;4725358;30;20046;-69
2023/04/14 08:56:12;;;;;;;15.27;7.10;;;12.80;99.90;;;;;;4734067;30;20072;-71
2023/04/14 08:58:46;;;;;;;16.50;7.93;;;12.80;99.90;;;;;;4719101;30;20103;-71
2023/04/14 09:01:12;;;;;;;18.00;8.27;;;12.80;99.90;;;;;;4737533;29;20053;-71
2023/04/14 09:03:39;;;;;;;12.15;6.93;;;12.90;99.90;;;;;;4776790;30;20062;-72
2023/04/14 09:06:06;;;;;;;13.95;7.15;;;12.90;99.90;;;;;;4766333;30;20059;-71
2023/04/14 09:08:35;;;;;;;19.35;9.13;;;13.00;99.90;;;;;;4766757;30;20032;-70
2023/04/14 09:11:37;;;;;;;18.92;10.75;;;13.00;99.90;;;;;;4766445;30;20056;-75
2023/04/14 09:14:05;;;;;;;13.15;6.75;;;13.00;99.90;;;;;;4766566;30;20397;-75
2023/04/14 09:16:32;;;;;;;16.88;9.07;;;13.00;99.90;;;;;;4766423;30;20463;-72
2023/04/14 09:18:58;;;;;;;18.00;8.88;;;12.90;99.90;;;;;;4857975;29;20040;-72
2023/04/14 09:22:09;;;;;;;23.83;12.88;;;13.00;99.90;;;;;;4899884;29;20044;-75
2023/04/14 09:25:04;;;;;;;23.10;12.63;;;13.00;99.90;;;;;;4860296;29;20045;-74
2023/04/14 09:27:30;;;;;;;13.60;6.60;;;13.00;99.90;;;;;;4860594;29;20167;-71
2023/04/14 09:30:10;;;;;;;13.48;6.72;;;13.00;99.90;;;;;;4860454;29;20073;-71
2023/04/14 09:32:37;;;;;;;10.93;5.25;;;12.80;99.90;;;;;;4860399;29;20030;-72
2023/04/14 09:35:12;;;;;;;18.30;8.35;;;12.70;99.90;;;;;;4860186;29;20066;-74
2023/04/14 09:38:37;;;;;;;16.60;8.27;;;12.60;99.90;;;;;;4835593;29;20520;-71
2023/04/14 09:47:36;;;;;;;7.50;4.00;;;12.40;99.90;;;;;;4787320;29;20093;-71
2023/04/14 09:50:03;;;;;;;12.70;5.07;;;12.30;99.90;;;;;;4786937;29;20090;-71
2023/04/14 09:52:40;;;;;;;17.27;7.57;;;12.30;99.90;;;;;;4787450;30;20404;-71
2023/04/14 09:55:11;;;;;;;10.18;5.72;;;12.20;99.90;;;;;;4787152;29;20468;-75
2023/04/14 09:57:40;;;;;;;17.60;7.07;;;12.30;99.90;;;;;;4787240;29;20032;-71
2023/04/14 10:00:15;;;;;;;18.13;7.85;;;12.30;99.90;;;;;;4787348;30;20078;-71
2023/04/14 10:02:47;;;;;;;14.27;6.05;;;12.40;99.90;;;;;;4804625;29;20467;-73
2023/04/14 10:05:48;;;;;;;12.05;4.85;;;12.40;99.90;;;;;;4790097;29;20057;-78
2023/04/14 10:08:14;;;;;;;11.10;4.53;;;12.50;99.90;;;;;;4790204;29;20031;-75
2023/04/14 10:14:41;;;;;;;10.82;5.63;;;12.80;99.90;;;;;;4681198;30;20046;-72
2023/04/14 10:17:55;;;;;;;9.82;5.97;;;13.10;99.90;;;;;;4681344;30;20074;-72
2023/04/14 10:20:25;;;;;;;14.07;7.70;;;13.30;99.90;;;;;;4681289;30;20498;-72
2023/04/14 10:22:53;;;;;;;14.77;7.40;;;13.40;99.90;;;;;;4667213;30;20110;-71
2023/04/14 10:25:19;;;;;;;13.82;6.57;;;13.60;99.90;;;;;;4720425;30;20149;-69
2023/04/14 10:28:02;;;;;;;9.55;4.93;;;13.70;99.90;;;;;;4733228;30;20040;-69
2023/04/14 10:30:32;;;;;;;13.57;4.78;;;13.90;99.90;;;;;;4732806;30;20045;-70
2023/04/14 10:33:38;;;;;;;10.85;5.80;;;14.00;99.90;;;;;;4715639;30;20041;-71
2023/04/14 10:36:28;;;;;;;11.43;5.47;;;14.20;99.90;;;;;;4732733;30;20041;-70
2023/04/14 10:39:02;;;;;;;14.05;7.28;;;14.50;99.90;;;;;;4754948;29;20488;-70
2023/04/14 10:42:29;;;;;;;;;;;;;;;;;;;;;
2023/04/14 10:45:57;;;;;;;50.03;12.65;;;15.00;99.90;;;;;;4729403;30;20033;-71
2023/04/14 10:49:14;;;;;;;18.48;8.43;;;15.40;99.90;;;;;;4749847;30;20040;-74
2023/04/14 10:51:48;;;;;;;12.73;6.40;;;15.40;99.90;;;;;;4718922;30;20051;-71
2023/04/14 10:54:45;;;;;;;29.58;15.00;;;15.60;99.90;;;;;;4718047;30;20636;-73
2023/04/14 10:57:45;;;;;;;25.58;13.00;;;15.80;99.90;;;;;;4743624;30;20098;-74
2023/04/14 11:00:36;;;;;;;12.98;5.10;;;16.00;99.90;;;;;;4749873;30;20043;-75
2023/04/14 11:03:55;;;;;;;15.70;7.22;;;16.10;99.90;;;;;;4747735;30;20064;-72
2023/04/14 11:06:53;;;;;;;15.30;7.15;;;16.50;99.90;;;;;;4732366;30;20048;-76
2023/04/14 11:09:43;;;;;;;11.27;5.90;;;16.70;99.90;;;;;;4731466;30;20112;-74
2023/04/14 11:12:30;;;;;;;9.60;3.80;;;17.00;98.60;;;;;;4717094;30;20051;-73
2023/04/14 11:15:45;;;;;;;7.20;3.45;;;16.40;94.90;;;;;;4716788;30;20474;-74
2023/04/14 11:19:36;;;;;;;6.20;3.70;;;16.20;99.10;;;;;;4705410;30;20487;-75
2023/04/14 11:22:17;;;;;;;8.05;3.83;;;16.10;99.80;;;;;;4736694;30;20044;-74
2023/04/14 11:24:57;;;;;;;7.82;3.78;;;16.20;99.70;;;;;;4749219;30;20436;-74
2023/04/14 11:27:35;;;;;;;7.32;3.47;;;16.20;99.90;;;;;;4753818;29;20040;-71
2023/04/14 11:30:23;;;;;;;6.03;2.17;;;15.90;99.90;;;;;;4787805;29;20046;-75
2023/04/14 11:33:35;;;;;;;5.82;3.20;;;14.80;99.90;;;;;;4766134;30;20463;-75
2023/04/14 11:36:05;;;;;;;7.30;3.42;;;15.00;99.90;;;;;;4765912;30;20456;-70
2023/04/14 11:38:34;;;;;;;5.22;2.35;;;14.80;99.90;;;;;;4763538;30;20028;-70
2023/04/14 11:41:00;;;;;;;3.83;2.28;;;14.50;99.90;;;;;;4751157;30;20048;-74
2023/04/14 11:44:10;;;;;;;6.38;2.00;;;14.70;99.90;;;;;;4765811;30;20067;-69
2023/04/14 11:47:05;;;;;;;6.57;2.17;;;14.40;99.90;;;;;;4699495;30;20046;-77
2023/04/14 11:49:38;;;;;;;5.63;2.10;;;14.20;99.90;;;;;;4713687;30;20049;-77
2023/04/14 11:52:43;;;;;;;3.47;1.70;;;14.80;99.90;;;;;;4702299;30;20053;-74
2023/04/14 11:55:33;;;;;;;5.93;2.22;;;15.00;99.90;;;;;;4728302;30;20405;-73
2023/04/14 11:58:17;;;;;;;2.60;1.60;;;15.30;99.90;;;;;;4740985;30;20429;-74
2023/04/14 12:00:47;;;;;;;3.88;1.83;;;15.10;99.90;;;;;;4742573;30;20040;-71
2023/04/14 12:03:38;;;;;;;3.75;1.90;;;15.00;99.90;;;;;;4747615;29;20050;-77
2023/04/14 12:06:05;;;;;;;3.75;1.60;;;15.00;99.90;;;;;;4778406;29;20052;-75
2023/04/14 12:09:16;;;;;;;3.72;1.75;;;14.80;99.90;;;;;;4779523;29;20079;-75
2023/04/14 12:16:05;;;;;;;4.43;1.50;;;14.80;99.90;;;;;;4731413;30;20037;-76
2023/04/14 12:19:17;;;;;;;4.90;1.30;;;15.10;99.90;;;;;;4665590;30;20486;-76
2023/04/14 12:21:57;;;;;;;2.95;1.42;;;14.80;99.90;;;;;;4679315;30;20045;-70
2023/04/14 12:24:23;;;;;;;3.20;2.08;;;14.90;99.90;;;;;;4725538;30;20123;-69
2023/04/14 12:27:20;;;;;;;5.53;1.70;;;15.00;99.90;;;;;;4730566;30;20143;-75
2023/04/14 12:30:05;;;;;;;6.20;1.80;;;15.10;99.90;;;;;;4708233;30;20092;-74
2023/04/14 12:32:45;;;;;;;3.03;1.52;;;15.20;99.90;;;;;;4730923;30;20393;-72
2023/04/14 12:35:16;;;;;;;3.03;1.42;;;15.50;99.90;;;;;;4713884;30;20049;-74
2023/04/14 12:38:13;;;;;;;1.70;1.38;;;15.40;99.90;;;;;;4714083;30;20041;-75
2023/04/14 12:40:45;;;;;;;9.57;4.63;;;15.10;99.90;;;;;;4713190;30;20549;-73
2023/04/14 12:43:12;;;;;;;4.75;2.65;;;15.20;99.90;;;;;;4698966;30;20060;-73
2023/04/14 12:50:17;;;;;;;5.90;2.95;;;14.70;99.90;;;;;;4676914;30;20181;-73
2023/04/14 12:53:48;;;;;;;3.05;1.48;;;14.70;99.90;;;;;;4704481;30;20040;-73
2023/04/14 12:57:08;;;;;;;9.23;2.70;;;14.90;99.90;;;;;;4730311;30;20048;-75
2023/04/14 12:59:49;;;;;;;;;;;;;;;;;;;;;
2023/04/14 13:02:22;;;;;;;7.43;3.17;;;14.90;99.90;;;;;;4735439;30;20040;-70
2023/04/14 13:05:11;;;;;;;3.47;1.70;;;14.90;99.90;;;;;;4754682;30;20059;-73
2023/04/14 13:07:47;;;;;;;8.88;4.13;;;14.70;99.90;;;;;;4797205;29;20055;-74
2023/04/14 13:10:19;;;;;;;16.60;5.45;;;14.60;99.90;;;;;;4795824;29;20069;-72
2023/04/14 13:12:45;;;;;;;15.43;6.20;;;14.60;99.90;;;;;;4805064;29;20054;-71
2023/04/14 13:15:12;;;;;;;15.48;5.32;;;14.60;99.90;;;;;;4790677;29;20035;-75
2023/04/14 13:17:41;;;;;;;15.50;5.85;;;14.50;99.90;;;;;;4805666;29;20054;-73
2023/04/14 13:20:25;;;;;;;12.27;5.93;;;14.50;99.90;;;;;;4805654;29;20039;-72
2023/04/14 13:23:00;;;;;;;13.65;6.20;;;14.50;99.90;;;;;;4804425;29;20106;-75
2023/04/14 13:25:43;;;;;;;17.63;7.97;;;14.30;99.90;;;;;;4857821;29;20049;-76
2023/04/14 13:28:41;;;;;;;23.77;11.50;;;14.20;99.90;;;;;;4861920;29;20345;-73
2023/04/14 13:31:10;;;;;;;10.73;5.03;;;14.20;99.90;;;;;;4888017;29;20085;-72
2023/04/14 13:37:44;;;;;;;22.92;13.15;;;14.10;99.90;;;;;;4718376;30;20049;-81
2023/04/14 13:40:16;;;;;;;16.02;8.10;;;14.00;99.90;;;;;;4734082;30;20041;-82
2023/04/14 13:43:31;;;;;;;8.15;3.95;;;14.00;99.90;;;;;;4734131;30;20521;-82
2023/04/14 13:46:35;;;;;;;7.15;3.20;;;14.10;99.90;;;;;;4729821;30;20401;-73
2023/04/14 13:49:03;;;;;;;13.35;4.57;;;13.90;99.90;;;;;;4748151;30;20041;-84
2023/04/14 13:52:25;;;;;;;8.70;3.67;;;13.90;99.90;;;;;;4749431;30;20039;-83
2023/04/14 13:58:36;;;;;;;10.52;4.53;;;13.90;99.90;;;;;;4759460;30;20085;-80
2023/04/14 14:02:09;;;;;;;9.70;4.05;;;13.80;99.90;;;;;;4769145;30;20041;-83
2023/04/14 14:04:49;;;;;;;6.38;3.25;;;13.60;99.90;;;;;;4752014;30;20048;-79
2023/04/14 14:07:17;;;;;;;9.10;3.92;;;13.50;99.90;;;;;;4775844;30;20047;-79
2023/04/14 14:09:44;;;;;;;11.07;3.78;;;13.40;99.90;;;;;;4780873;29;20062;-81
2023/04/14 14:12:11;;;;;;;13.00;6.10;;;13.30;99.90;;;;;;4805280;29;20161;-81
2023/04/14 14:14:37;;;;;;;30.98;16.23;;;13.40;99.90;;;;;;4842491;29;20494;-80
2023/04/14 14:17:07;;;;;;;15.02;7.00;;;13.30;99.90;;;;;;4859814;29;20056;-80